Bainbridge, Georgia
Current Conditions -  °F | °C
As of 6:15 AM on Sunday 23 Nov 2014 (Local Time) from KBGE Reporting Station
Drizzle Drizzle  
Wind Chill: 63°   Ceiling: 600
Heat Index: 63°   Visibility: 7mi
Dew Point: 63°   Wind: 6mph
Humidity: 100%   Direction: 100°E
Pressure: 29.93"   Gusts: NA
Location:  30.91°N, 84.57°W
Report Text: KBGE 231115Z AUTO 10005KT 7SM DZ OVC006 17/17 A2993 RMK AO2
Loading
Personal Weather Stations






























Interactive Weather Map New forecast layout! Learn more

10-Day Weather Forecast

Advertisements
Track Severe Weather on mobile